Terminal Aerodrome Forecast
Issued by NWS Memphis, TN

Home | Current Version | Previous Version | Text Only | Print | Product List | Glossary On
Versions: 1 2 3 4 5 6 7 8 9 10 11 12
854
FTUS44 KMEG 300530
TAFMKL
TAF
KMKL 300530Z 3006/0106 16013G20KT P6SM FEW050
     FM300900 16013G20KT P6SM BKN025 BKN250 WS020/20050KT
     FM301500 17018G28KT P6SM VCTS BKN035CB
      TEMPO 3015/3018 2SM TSRA BKN020CB
     FM302100 21015G25KT P6SM VCSH BKN040 OVC100=

USA.gov is the U.S. government's official web portal to all federal, state and local government web resources and services.